Weather observations for the past three days for
Liberal, Liberal Municipal Airport
Metric (Imperial)
Date Time (cdt) Wind (kph) Vis. (km) Weather Sky Cond. Temperature (ºC) Relative Humidity Wind Chill (°C) Heat Index (°C) Pressure Precipitation (cm)
Air Dwpt 6 hour altimeter (cm) sea level (mb) 1 hr 3 hr 6 hr
Max. Min.
02 08:56 S 19 16.09 Fair CLR 22.8 13.9 57% 76.28 1013.7
02 07:56 S 17 16.09 Fair CLR 21.7 13.9 61% 76.28 1013.3
02 06:56 S 19 16.09 Fair CLR 21.7 13.9 25.6 20.6 61% 76.25 1012.8
02 05:56 S 17 16.09 Fair CLR 21.1 13.9 64% 76.25 1012.6
02 04:56 S 15 16.09 Fair CLR 21.1 14.4 66% 76.25 1012.6
02 03:56 S 13 16.09 Fair CLR 21.1 14.4 66% 76.25 1012.7
02 02:56 S 17 16.09 Fair CLR 22.8 15 62% 76.25 1012.5
02 01:56 S 13 16.09 Fair CLR 23.9 15 58% 25 76.23 1012.5
02 00:56 S 15 16.09 Fair CLR 25.6 15.6 33.3 25 54% 26 76.25 1012.5
01 23:56 S 17 16.09 Fair CLR 27.2 15.6 49% 28 76.25 1012.6
01 22:56 SW 15 16.09 Fair CLR 27.8 15.6 47% 28 76.25 1012.7
01 21:56 S 17 16.09 Fair CLR 26.1 15.6 52% 27 76.2 1012.3
01 20:56 S 15 16.09 Fair CLR 27.2 15.6 49% 28 76.15 1011.7
01 19:56 S 15 16.09 Fair CLR 30 15 40% 30 76.12 1011.4
01 18:56 S 22 16.09 Fair CLR 33.3 14.4 36.1 33.3 32% 33 76.1 1011.0
01 17:56 S 24 16.09 Fair CLR 35 15 30% 35 76.1 1010.9
01 16:56 S 22 16.09 Fair CLR 36.1 15 28% 36 76.12 1010.9
01 15:56 S 20 16.09 Fair CLR 36.1 14.4 27% 36 76.15 1011.4
01 14:56 S 24 G 31 16.09 A Few Clouds FEW100 35 16.1 32% 35 76.25 1012.5
01 13:56 S 13 16.09 Partly Cloudy SCT085 33.9 15 32% 34 76.3 1013.3
01 12:56 S 15 16.09 Fair CLR 33.3 17.2 33.3 18.3 38% 34 76.38 1014.3
01 11:56 SW 15 16.09 Fair CLR 31.1 16.1 40% 31 76.4 1014.9
01 10:56 SW 20 16.09 Fair CLR 29.4 16.1 45% 30 76.43 1015.1
01 09:56 S 11 16.09 Fair CLR 26.7 15 49% 27 76.43 1015.2
01 08:56 S 13 16.09 Fair CLR 24.4 16.7 62% 25 76.43 1015.5
01 07:56 S 13 16.09 Fair CLR 19.4 16.1 81% 76.4 1015.2
01 06:56 S 6 16.09 A Few Clouds FEW100 19.4 16.1 23.3 18.9 81% 76.38 1014.4
01 05:56 NW 6 16.09 Overcast OVC100 19.4 16.1 81% 76.38 1014.5
01 04:56 S 11 16.09 Mostly Cloudy BKN100 20 15.6 76% 76.35 1014.2
01 03:56 S 11 16.09 A Few Clouds FEW100 20.6 15.6 73% 76.35 1014.0
01 02:56 S 13 16.09 Fair CLR 21.7 15.6 68% 76.33 1013.7
01 01:56 S 9 16.09 Fair CLR 22.8 15.6 64% 76.33 1013.8
01 00:56 SW 11 16.09 Fair CLR 23.3 16.1 35 23.3 64% 76.33 1013.8
31 23:56 S 13 16.09 Fair CLR 24.4 15.6 58% 26 76.3 1013.3
31 22:56 S 17 16.09 Fair CLR 25 15.6 56% 26 76.28 1013.1
31 21:56 S 17 16.09 Fair CLR 26.7 15 49% 27 76.23 1012.4
31 20:56 SE 17 16.09 Fair CLR 27.8 15.6 47% 28 76.12 1011.2
31 19:56 S 17 16.09 Fair CLR 31.7 15.6 38% 31 76.05 1010.1
31 18:56 S 19 16.09 Fair CLR 35.6 15.6 37.2 33.3 30% 36 76.05 1009.8
31 17:56 S 11 16.09 Fair CLR 37.2 15.6 28% 37 76.05 1009.5
31 16:56 SW 13 16.09 Fair CLR 37.2 15 27% 37 76.1 1010.1
31 15:56 S 17 16.09 Fair CLR 36.7 16.7 31% 37 76.15 1011.1
31 14:56 Vrbl 9 16.09 Fair CLR 35.6 16.7 32% 36 76.23 1012.2
31 13:56 S 15 16.09 Fair CLR 34.4 16.7 35% 35 76.28 1012.7
31 12:56 SW 13 16.09 Fair CLR 33.3 17.2 33.3 22.8 38% 34 76.3 1013.1
31 11:56 SW 19 16.09 Fair CLR 32.2 16.1 38% 32 76.33 1013.6
31 10:56 SW 19 16.09 Fair CLR 30 16.7 45% 30 76.3 1013.2
31 09:56 S 17 16.09 Fair CLR 28.3 16.1 48% 29 76.25 1012.8
31 08:56 S 19 16.09 Fair CLR 25.6 16.1 56% 26 76.23 1012.5
31 07:56 S 17 16.09 Fair CLR 23.3 16.7 67% 76.23 1012.3
31 06:56 SE 11 16.09 Fair CLR 22.8 16.7 26.7 22.8 69% 76.23 1012.1
31 05:56 NE 6 16.09 Fair CLR 24.4 16.1 60% 26 76.25 1012.3
31 04:56 SW 13 16.09 A Few Clouds FEW070 25 16.1 58% 26 76.17 1011.3
31 02:56 SW 13 16.09 A Few Clouds FEW120 23.3 16.7 67% 76.17 1011.4
31 01:56 SW 15 16.09 A Few Clouds FEW120 25.6 15.6 54% 26 76.15 1011.1
31 00:56 S 15 16.09 Fair CLR 26.1 15 35.6 26.1 50% 27 76.12 1010.8
30 23:56 S 22 16.09 Fair CLR 27.2 14.4 45% 27 76.07 1010.0
30 22:56 S 28 16.09 Fair CLR 28.3 14.4 43% 28 76 1009.2
30 21:56 S 20 16.09 Fair CLR 28.9 14.4 41% 29 75.97 1008.9
30 20:56 S 22 16.09 Fair CLR 30 15 40% 30 75.92 1008.4
30 19:56 S 19 16.09 Fair CLR 32.2 15.6 37% 32 75.9 1007.9
30 18:56 S 22 16.09 Fair CLR 36.1 16.7 38.9 33.9 32% 37 75.87 1007.3
30 17:56 Calm 16.09 Fair CLR 37.8 17.2 30% 39 75.87 1007.3
30 16:56 Vrbl 6 16.09 Fair CLR 38.3 17.2 29% 40 75.9 1007.4
30 15:56 W 11 16.09 Fair CLR 37.8 16.7 29% 39 75.95 1008.1
30 14:56 W 7 16.09 Fair CLR 36.7 17.2 32% 38 76.02 1009.1
30 13:56 W 17 16.09 Fair CLR 35.6 17.2 34% 36 76.07 1010.0
30 12:56 W 13 16.09 Fair CLR 33.9 16.7 33.9 20.6 36% 34 76.12 1010.8
30 11:56 W 17 16.09 Fair CLR 32.8 16.1 37% 33 76.15 1011.0
30 10:56 W 20 16.09 Fair CLR 31.1 16.1 40% 31 76.12 1010.9
30 09:56 SW 15 16.09 Fair CLR 27.8 16.1 49% 28 76.12 1010.9
Date Time (cdt) Wind (kph) Vis. (km) Weather Sky Cond. Air Dwpt Max. Min. Relative Humidity Wind Chill (°C) Heat Index (°C) altimeter (cm) sea level (mb) 1 hr 3 hr 6 hr
6 hour
Temperature (ºC) Pressure Precipitation (cm)